sensor_id;sensor_type;location;lat;lon;timestamp;P1;durP1;ratioP1;P2;durP2;ratioP2
25111;SDS011;13092;51.996;4.458;2023-07-13T00:01:13;54.10;;;48.97;;
25111;SDS011;13092;51.996;4.458;2023-07-13T00:03:43;52.53;;;47.58;;
25111;SDS011;13092;51.996;4.458;2023-07-13T00:06:11;53.88;;;48.90;;
25111;SDS011;13092;51.996;4.458;2023-07-13T00:08:40;52.55;;;47.83;;
25111;SDS011;13092;51.996;4.458;2023-07-13T00:11:08;53.58;;;48.88;;
25111;SDS011;13092;51.996;4.458;2023-07-13T00:13:37;54.53;;;49.47;;
25111;SDS011;13092;51.996;4.458;2023-07-13T00:16:06;53.50;;;48.25;;
25111;SDS011;13092;51.996;4.458;2023-07-13T00:18:35;54.10;;;49.22;;
25111;SDS011;13092;51.996;4.458;2023-07-13T00:21:06;53.45;;;48.72;;
25111;SDS011;13092;51.996;4.458;2023-07-13T00:23:36;53.83;;;48.85;;
25111;SDS011;13092;51.996;4.458;2023-07-13T00:26:06;53.45;;;48.70;;
25111;SDS011;13092;51.996;4.458;2023-07-13T00:28:37;54.30;;;49.28;;
25111;SDS011;13092;51.996;4.458;2023-07-13T00:31:06;51.45;;;46.90;;
25111;SDS011;13092;51.996;4.458;2023-07-13T00:33:35;51.17;;;46.90;;
25111;SDS011;13092;51.996;4.458;2023-07-13T00:36:06;53.00;;;48.45;;
25111;SDS011;13092;51.996;4.458;2023-07-13T00:38:37;54.33;;;49.42;;
25111;SDS011;13092;51.996;4.458;2023-07-13T00:41:06;53.75;;;49.00;;
25111;SDS011;13092;51.996;4.458;2023-07-13T00:43:34;52.17;;;47.55;;
25111;SDS011;13092;51.996;4.458;2023-07-13T00:46:11;53.00;;;48.20;;
25111;SDS011;13092;51.996;4.458;2023-07-13T00:48:41;55.35;;;50.25;;
25111;SDS011;13092;51.996;4.458;2023-07-13T00:51:13;53.92;;;49.10;;
25111;SDS011;13092;51.996;4.458;2023-07-13T00:53:44;54.67;;;49.80;;
25111;SDS011;13092;51.996;4.458;2023-07-13T00:56:13;53.67;;;48.97;;
25111;SDS011;13092;51.996;4.458;2023-07-13T00:58:42;54.00;;;48.95;;
25111;SDS011;13092;51.996;4.458;2023-07-13T01:01:10;55.55;;;50.33;;
25111;SDS011;13092;51.996;4.458;2023-07-13T01:03:39;53.78;;;48.85;;
25111;SDS011;13092;51.996;4.458;2023-07-13T01:06:08;53.95;;;49.22;;
25111;SDS011;13092;51.996;4.458;2023-07-13T01:08:38;53.55;;;48.83;;
25111;SDS011;13092;51.996;4.458;2023-07-13T01:11:07;54.40;;;49.65;;
25111;SDS011;13092;51.996;4.458;2023-07-13T01:13:36;54.47;;;49.38;;
25111;SDS011;13092;51.996;4.458;2023-07-13T01:16:05;54.13;;;49.17;;
25111;SDS011;13092;51.996;4.458;2023-07-13T01:18:42;53.90;;;49.20;;
25111;SDS011;13092;51.996;4.458;2023-07-13T01:21:13;54.28;;;49.55;;
25111;SDS011;13092;51.996;4.458;2023-07-13T01:23:41;54.53;;;49.33;;
25111;SDS011;13092;51.996;4.458;2023-07-13T01:26:10;52.70;;;48.03;;
25111;SDS011;13092;51.996;4.458;2023-07-13T01:28:39;51.80;;;47.45;;
25111;SDS011;13092;51.996;4.458;2023-07-13T01:31:07;51.15;;;46.85;;
25111;SDS011;13092;51.996;4.458;2023-07-13T01:33:37;50.40;;;45.92;;
25111;SDS011;13092;51.996;4.458;2023-07-13T01:36:07;49.40;;;45.45;;
25111;SDS011;13092;51.996;4.458;2023-07-13T01:38:38;50.72;;;46.40;;
25111;SDS011;13092;51.996;4.458;2023-07-13T01:41:10;49.53;;;45.67;;
25111;SDS011;13092;51.996;4.458;2023-07-13T01:43:38;49.47;;;45.33;;
25111;SDS011;13092;51.996;4.458;2023-07-13T01:46:07;49.38;;;45.50;;
25111;SDS011;13092;51.996;4.458;2023-07-13T01:48:42;48.78;;;45.28;;
25111;SDS011;13092;51.996;4.458;2023-07-13T01:51:10;50.00;;;46.20;;
25111;SDS011;13092;51.996;4.458;2023-07-13T01:53:41;49.30;;;45.47;;
25111;SDS011;13092;51.996;4.458;2023-07-13T01:56:10;48.92;;;45.15;;
25111;SDS011;13092;51.996;4.458;2023-07-13T01:58:38;48.63;;;45.10;;
25111;SDS011;13092;51.996;4.458;2023-07-13T02:01:07;48.55;;;44.92;;
25111;SDS011;13092;51.996;4.458;2023-07-13T02:03:35;48.75;;;45.45;;
25111;SDS011;13092;51.996;4.458;2023-07-13T02:06:03;49.22;;;45.50;;
25111;SDS011;13092;51.996;4.458;2023-07-13T02:08:32;49.03;;;45.42;;
25111;SDS011;13092;51.996;4.458;2023-07-13T02:11:03;48.42;;;44.78;;
25111;SDS011;13092;51.996;4.458;2023-07-13T02:13:32;48.58;;;44.88;;
25111;SDS011;13092;51.996;4.458;2023-07-13T02:16:00;49.47;;;45.78;;
25111;SDS011;13092;51.996;4.458;2023-07-13T02:18:29;50.58;;;46.88;;
25111;SDS011;13092;51.996;4.458;2023-07-13T02:20:57;51.38;;;47.38;;
25111;SDS011;13092;51.996;4.458;2023-07-13T02:23:26;51.05;;;47.10;;
25111;SDS011;13092;51.996;4.458;2023-07-13T02:25:55;52.45;;;48.03;;
25111;SDS011;13092;51.996;4.458;2023-07-13T02:28:25;51.05;;;46.90;;
25111;SDS011;13092;51.996;4.458;2023-07-13T02:30:53;52.22;;;48.00;;
25111;SDS011;13092;51.996;4.458;2023-07-13T02:33:21;53.25;;;48.95;;
25111;SDS011;13092;51.996;4.458;2023-07-13T02:35:50;53.08;;;48.78;;
25111;SDS011;13092;51.996;4.458;2023-07-13T02:38:18;52.88;;;48.58;;
25111;SDS011;13092;51.996;4.458;2023-07-13T02:40:46;53.83;;;49.10;;
25111;SDS011;13092;51.996;4.458;2023-07-13T02:43:15;54.33;;;49.95;;
25111;SDS011;13092;51.996;4.458;2023-07-13T02:45:45;54.13;;;49.30;;
25111;SDS011;13092;51.996;4.458;2023-07-13T02:48:14;54.22;;;49.50;;
25111;SDS011;13092;51.996;4.458;2023-07-13T02:50:42;52.85;;;48.33;;
25111;SDS011;13092;51.996;4.458;2023-07-13T02:53:12;50.42;;;45.85;;
25111;SDS011;13092;51.996;4.458;2023-07-13T02:55:40;50.55;;;45.95;;
25111;SDS011;13092;51.996;4.458;2023-07-13T02:58:13;50.33;;;45.72;;
25111;SDS011;13092;51.996;4.458;2023-07-13T03:00:45;52.00;;;46.85;;
25111;SDS011;13092;51.996;4.458;2023-07-13T03:03:16;49.88;;;45.20;;
25111;SDS011;13092;51.996;4.458;2023-07-13T03:05:45;50.03;;;45.38;;
25111;SDS011;13092;51.996;4.458;2023-07-13T03:08:17;49.40;;;44.83;;
25111;SDS011;13092;51.996;4.458;2023-07-13T03:10:45;50.30;;;45.50;;
25111;SDS011;13092;51.996;4.458;2023-07-13T03:13:13;49.35;;;44.25;;
25111;SDS011;13092;51.996;4.458;2023-07-13T03:15:42;48.97;;;44.33;;
25111;SDS011;13092;51.996;4.458;2023-07-13T03:18:12;48.50;;;43.72;;
25111;SDS011;13092;51.996;4.458;2023-07-13T03:20:40;48.55;;;44.15;;
25111;SDS011;13092;51.996;4.458;2023-07-13T03:23:08;48.53;;;44.00;;
25111;SDS011;13092;51.996;4.458;2023-07-13T03:25:36;47.35;;;42.92;;
25111;SDS011;13092;51.996;4.458;2023-07-13T03:28:05;48.47;;;44.33;;
25111;SDS011;13092;51.996;4.458;2023-07-13T03:30:33;47.15;;;42.92;;
25111;SDS011;13092;51.996;4.458;2023-07-13T03:33:01;47.58;;;43.17;;
25111;SDS011;13092;51.996;4.458;2023-07-13T03:35:35;47.92;;;43.13;;
25111;SDS011;13092;51.996;4.458;2023-07-13T03:38:07;46.92;;;42.72;;
25111;SDS011;13092;51.996;4.458;2023-07-13T03:40:36;46.80;;;42.58;;
25111;SDS011;13092;51.996;4.458;2023-07-13T03:43:04;47.15;;;42.22;;
25111;SDS011;13092;51.996;4.458;2023-07-13T03:45:32;47.33;;;43.13;;
25111;SDS011;13092;51.996;4.458;2023-07-13T03:48:00;47.65;;;43.42;;
25111;SDS011;13092;51.996;4.458;2023-07-13T03:50:29;48.13;;;43.25;;
25111;SDS011;13092;51.996;4.458;2023-07-13T03:52:59;46.38;;;42.35;;
25111;SDS011;13092;51.996;4.458;2023-07-13T03:55:28;47.47;;;42.88;;
25111;SDS011;13092;51.996;4.458;2023-07-13T03:57:58;45.83;;;42.15;;
25111;SDS011;13092;51.996;4.458;2023-07-13T04:00:27;47.28;;;42.80;;
25111;SDS011;13092;51.996;4.458;2023-07-13T04:02:55;45.72;;;41.42;;
25111;SDS011;13092;51.996;4.458;2023-07-13T04:05:24;45.83;;;41.90;;
25111;SDS011;13092;51.996;4.458;2023-07-13T04:07:52;44.85;;;40.63;;
25111;SDS011;13092;51.996;4.458;2023-07-13T04:10:21;45.67;;;41.38;;
25111;SDS011;13092;51.996;4.458;2023-07-13T04:12:50;44.95;;;40.97;;
25111;SDS011;13092;51.996;4.458;2023-07-13T04:15:18;43.85;;;40.17;;
25111;SDS011;13092;51.996;4.458;2023-07-13T04:17:46;43.63;;;39.78;;
25111;SDS011;13092;51.996;4.458;2023-07-13T04:20:15;44.25;;;40.30;;
25111;SDS011;13092;51.996;4.458;2023-07-13T04:22:43;43.00;;;39.22;;
25111;SDS011;13092;51.996;4.458;2023-07-13T04:25:11;44.40;;;40.53;;
25111;SDS011;13092;51.996;4.458;2023-07-13T04:27:41;43.95;;;40.05;;
25111;SDS011;13092;51.996;4.458;2023-07-13T04:30:09;44.95;;;40.65;;
25111;SDS011;13092;51.996;4.458;2023-07-13T04:32:38;44.35;;;40.67;;
25111;SDS011;13092;51.996;4.458;2023-07-13T04:35:06;43.20;;;39.80;;
25111;SDS011;13092;51.996;4.458;2023-07-13T04:37:35;43.83;;;40.17;;
25111;SDS011;13092;51.996;4.458;2023-07-13T04:40:04;43.30;;;39.80;;
25111;SDS011;13092;51.996;4.458;2023-07-13T04:42:33;45.03;;;41.00;;
25111;SDS011;13092;51.996;4.458;2023-07-13T04:45:03;44.08;;;40.38;;
25111;SDS011;13092;51.996;4.458;2023-07-13T04:47:31;43.28;;;39.75;;
25111;SDS011;13092;51.996;4.458;2023-07-13T04:50:00;44.00;;;40.30;;
25111;SDS011;13092;51.996;4.458;2023-07-13T04:52:29;42.53;;;38.58;;
25111;SDS011;13092;51.996;4.458;2023-07-13T04:54:59;42.47;;;38.85;;
25111;SDS011;13092;51.996;4.458;2023-07-13T04:57:28;41.95;;;38.63;;
25111;SDS011;13092;51.996;4.458;2023-07-13T04:59:56;41.85;;;38.25;;
25111;SDS011;13092;51.996;4.458;2023-07-13T05:02:28;41.60;;;38.00;;
25111;SDS011;13092;51.996;4.458;2023-07-13T05:04:58;40.72;;;37.40;;
25111;SDS011;13092;51.996;4.458;2023-07-13T05:07:27;40.83;;;37.67;;
25111;SDS011;13092;51.996;4.458;2023-07-13T05:09:55;42.05;;;38.58;;
25111;SDS011;13092;51.996;4.458;2023-07-13T05:12:23;42.03;;;38.70;;
25111;SDS011;13092;51.996;4.458;2023-07-13T05:14:51;42.42;;;38.92;;
25111;SDS011;13092;51.996;4.458;2023-07-13T05:17:20;42.03;;;38.85;;
25111;SDS011;13092;51.996;4.458;2023-07-13T05:19:50;42.80;;;39.65;;
25111;SDS011;13092;51.996;4.458;2023-07-13T05:22:18;42.35;;;39.00;;
25111;SDS011;13092;51.996;4.458;2023-07-13T05:24:46;42.72;;;39.42;;
25111;SDS011;13092;51.996;4.458;2023-07-13T05:27:15;42.50;;;39.40;;
25111;SDS011;13092;51.996;4.458;2023-07-13T05:29:43;44.13;;;40.50;;
25111;SDS011;13092;51.996;4.458;2023-07-13T05:32:11;42.72;;;39.53;;
25111;SDS011;13092;51.996;4.458;2023-07-13T05:34:40;45.30;;;41.63;;
25111;SDS011;13092;51.996;4.458;2023-07-13T05:37:09;43.75;;;40.30;;
25111;SDS011;13092;51.996;4.458;2023-07-13T05:39:38;44.33;;;40.40;;
25111;SDS011;13092;51.996;4.458;2023-07-13T05:42:06;43.72;;;40.22;;
25111;SDS011;13092;51.996;4.458;2023-07-13T05:44:35;43.20;;;40.08;;
25111;SDS011;13092;51.996;4.458;2023-07-13T05:47:04;42.40;;;39.05;;
25111;SDS011;13092;51.996;4.458;2023-07-13T05:49:34;44.08;;;40.65;;
25111;SDS011;13092;51.996;4.458;2023-07-13T05:52:02;42.88;;;39.53;;
25111;SDS011;13092;51.996;4.458;2023-07-13T05:54:32;42.85;;;39.40;;
25111;SDS011;13092;51.996;4.458;2023-07-13T05:57:01;44.63;;;41.15;;
25111;SDS011;13092;51.996;4.458;2023-07-13T05:59:29;44.25;;;40.83;;
25111;SDS011;13092;51.996;4.458;2023-07-13T06:01:57;43.88;;;40.40;;
25111;SDS011;13092;51.996;4.458;2023-07-13T06:04:26;44.35;;;41.05;;
25111;SDS011;13092;51.996;4.458;2023-07-13T06:06:54;46.47;;;42.72;;
25111;SDS011;13092;51.996;4.458;2023-07-13T06:09:22;46.92;;;43.10;;
25111;SDS011;13092;51.996;4.458;2023-07-13T06:11:52;46.72;;;43.03;;
25111;SDS011;13092;51.996;4.458;2023-07-13T06:14:20;47.92;;;44.13;;
25111;SDS011;13092;51.996;4.458;2023-07-13T06:16:48;46.75;;;42.83;;
25111;SDS011;13092;51.996;4.458;2023-07-13T06:19:17;46.03;;;42.53;;
25111;SDS011;13092;51.996;4.458;2023-07-13T06:21:45;45.28;;;41.88;;
25111;SDS011;13092;51.996;4.458;2023-07-13T06:24:14;43.83;;;40.17;;
25111;SDS011;13092;51.996;4.458;2023-07-13T06:26:42;43.28;;;39.95;;
25111;SDS011;13092;51.996;4.458;2023-07-13T06:29:12;44.58;;;40.75;;
25111;SDS011;13092;51.996;4.458;2023-07-13T06:31:40;42.70;;;39.42;;
25111;SDS011;13092;51.996;4.458;2023-07-13T06:34:08;41.67;;;38.75;;
25111;SDS011;13092;51.996;4.458;2023-07-13T06:36:37;44.58;;;41.33;;
25111;SDS011;13092;51.996;4.458;2023-07-13T06:39:06;43.50;;;40.42;;
25111;SDS011;13092;51.996;4.458;2023-07-13T06:41:34;43.38;;;40.22;;
25111;SDS011;13092;51.996;4.458;2023-07-13T06:44:04;46.47;;;42.88;;
25111;SDS011;13092;51.996;4.458;2023-07-13T06:46:35;44.10;;;40.95;;
25111;SDS011;13092;51.996;4.458;2023-07-13T06:49:03;40.72;;;37.83;;
25111;SDS011;13092;51.996;4.458;2023-07-13T06:51:31;40.92;;;37.92;;
25111;SDS011;13092;51.996;4.458;2023-07-13T06:54:00;45.50;;;41.83;;
25111;SDS011;13092;51.996;4.458;2023-07-13T06:56:28;45.67;;;42.58;;
25111;SDS011;13092;51.996;4.458;2023-07-13T06:58:57;44.53;;;41.50;;
25111;SDS011;13092;51.996;4.458;2023-07-13T07:01:25;46.20;;;42.90;;
25111;SDS011;13092;51.996;4.458;2023-07-13T07:03:55;49.00;;;45.78;;
25111;SDS011;13092;51.996;4.458;2023-07-13T07:06:24;50.80;;;47.10;;
25111;SDS011;13092;51.996;4.458;2023-07-13T07:08:52;51.53;;;47.72;;
25111;SDS011;13092;51.996;4.458;2023-07-13T07:11:21;51.95;;;48.25;;
25111;SDS011;13092;51.996;4.458;2023-07-13T07:13:51;52.70;;;49.03;;
25111;SDS011;13092;51.996;4.458;2023-07-13T07:16:20;51.35;;;47.53;;
25111;SDS011;13092;51.996;4.458;2023-07-13T07:18:49;52.60;;;49.05;;
25111;SDS011;13092;51.996;4.458;2023-07-13T07:21:18;53.47;;;49.78;;
25111;SDS011;13092;51.996;4.458;2023-07-13T07:23:49;50.25;;;46.95;;
25111;SDS011;13092;51.996;4.458;2023-07-13T07:26:17;49.63;;;46.22;;
25111;SDS011;13092;51.996;4.458;2023-07-13T07:28:49;47.72;;;44.35;;
25111;SDS011;13092;51.996;4.458;2023-07-13T07:31:37;50.00;;;46.58;;
25111;SDS011;13092;51.996;4.458;2023-07-13T07:34:08;49.75;;;46.35;;
25111;SDS011;13092;51.996;4.458;2023-07-13T07:36:38;48.83;;;45.50;;
25111;SDS011;13092;51.996;4.458;2023-07-13T07:39:09;49.35;;;46.20;;
25111;SDS011;13092;51.996;4.458;2023-07-13T07:41:37;50.00;;;46.38;;
25111;SDS011;13092;51.996;4.458;2023-07-13T07:44:09;49.90;;;46.75;;
25111;SDS011;13092;51.996;4.458;2023-07-13T07:46:37;51.75;;;48.25;;
25111;SDS011;13092;51.996;4.458;2023-07-13T07:49:06;50.53;;;46.97;;
25111;SDS011;13092;51.996;4.458;2023-07-13T07:51:35;56.53;;;52.55;;
25111;SDS011;13092;51.996;4.458;2023-07-13T07:54:05;56.53;;;52.50;;
25111;SDS011;13092;51.996;4.458;2023-07-13T07:56:33;51.95;;;48.38;;
25111;SDS011;13092;51.996;4.458;2023-07-13T07:59:04;51.40;;;47.85;;
25111;SDS011;13092;51.996;4.458;2023-07-13T08:01:36;54.78;;;51.10;;
25111;SDS011;13092;51.996;4.458;2023-07-13T08:04:24;55.28;;;51.58;;
25111;SDS011;13092;51.996;4.458;2023-07-13T08:06:55;45.83;;;42.97;;
25111;SDS011;13092;51.996;4.458;2023-07-13T08:09:25;45.00;;;42.05;;
25111;SDS011;13092;51.996;4.458;2023-07-13T08:11:53;44.30;;;41.45;;
25111;SDS011;13092;51.996;4.458;2023-07-13T08:14:25;48.03;;;44.53;;
25111;SDS011;13092;51.996;4.458;2023-07-13T08:17:12;43.53;;;40.83;;
25111;SDS011;13092;51.996;4.458;2023-07-13T08:19:40;41.17;;;38.20;;
25111;SDS011;13092;51.996;4.458;2023-07-13T08:22:08;40.67;;;38.03;;
25111;SDS011;13092;51.996;4.458;2023-07-13T08:24:38;46.17;;;42.85;;
25111;SDS011;13092;51.996;4.458;2023-07-13T08:27:08;48.83;;;45.78;;
25111;SDS011;13092;51.996;4.458;2023-07-13T08:29:37;51.95;;;47.97;;
25111;SDS011;13092;51.996;4.458;2023-07-13T08:32:07;59.80;;;55.90;;
25111;SDS011;13092;51.996;4.458;2023-07-13T08:34:37;53.45;;;50.10;;
25111;SDS011;13092;51.996;4.458;2023-07-13T08:37:05;52.60;;;49.17;;
25111;SDS011;13092;51.996;4.458;2023-07-13T08:39:34;54.13;;;50.80;;
25111;SDS011;13092;51.996;4.458;2023-07-13T08:42:05;50.45;;;47.05;;
25111;SDS011;13092;51.996;4.458;2023-07-13T08:44:40;54.97;;;51.38;;
25111;SDS011;13092;51.996;4.458;2023-07-13T08:47:16;56.90;;;53.00;;
25111;SDS011;13092;51.996;4.458;2023-07-13T08:49:45;57.70;;;53.72;;
25111;SDS011;13092;51.996;4.458;2023-07-13T08:52:16;58.45;;;54.33;;
25111;SDS011;13092;51.996;4.458;2023-07-13T08:54:53;57.75;;;53.85;;
25111;SDS011;13092;51.996;4.458;2023-07-13T08:57:27;57.00;;;53.30;;
25111;SDS011;13092;51.996;4.458;2023-07-13T09:00:03;53.42;;;49.72;;
25111;SDS011;13092;51.996;4.458;2023-07-13T09:02:36;49.78;;;46.63;;
25111;SDS011;13092;51.996;4.458;2023-07-13T09:05:10;49.60;;;46.47;;
25111;SDS011;13092;51.996;4.458;2023-07-13T09:07:53;55.63;;;51.80;;
25111;SDS011;13092;51.996;4.458;2023-07-13T09:10:37;48.65;;;45.55;;
25111;SDS011;13092;51.996;4.458;2023-07-13T09:13:22;51.85;;;48.17;;
25111;SDS011;13092;51.996;4.458;2023-07-13T09:15:55;49.50;;;46.20;;
25111;SDS011;13092;51.996;4.458;2023-07-13T09:18:26;51.75;;;48.58;;
25111;SDS011;13092;51.996;4.458;2023-07-13T09:21:00;49.90;;;46.58;;
25111;SDS011;13092;51.996;4.458;2023-07-13T09:23:32;55.58;;;52.08;;
25111;SDS011;13092;51.996;4.458;2023-07-13T09:26:02;52.25;;;49.05;;
25111;SDS011;13092;51.996;4.458;2023-07-13T09:28:37;51.65;;;48.42;;
25111;SDS011;13092;51.996;4.458;2023-07-13T09:31:10;59.38;;;55.50;;
25111;SDS011;13092;51.996;4.458;2023-07-13T09:33:41;66.20;;;61.92;;
25111;SDS011;13092;51.996;4.458;2023-07-13T09:36:16;61.20;;;57.20;;
25111;SDS011;13092;51.996;4.458;2023-07-13T09:38:47;62.45;;;58.45;;
25111;SDS011;13092;51.996;4.458;2023-07-13T09:41:19;66.22;;;61.92;;
25111;SDS011;13092;51.996;4.458;2023-07-13T09:44:06;63.78;;;59.72;;
25111;SDS011;13092;51.996;4.458;2023-07-13T09:46:39;59.83;;;56.13;;
25111;SDS011;13092;51.996;4.458;2023-07-13T09:49:12;55.60;;;52.00;;
25111;SDS011;13092;51.996;4.458;2023-07-13T09:51:40;46.80;;;43.80;;
25111;SDS011;13092;51.996;4.458;2023-07-13T09:54:20;54.10;;;50.70;;
25111;SDS011;13092;51.996;4.458;2023-07-13T09:56:53;58.15;;;54.35;;
25111;SDS011;13092;51.996;4.458;2023-07-13T09:59:26;53.67;;;50.17;;
25111;SDS011;13092;51.996;4.458;2023-07-13T10:01:57;48.42;;;45.53;;
25111;SDS011;13092;51.996;4.458;2023-07-13T10:04:27;48.42;;;45.42;;
25111;SDS011;13092;51.996;4.458;2023-07-13T10:07:04;44.33;;;41.78;;
25111;SDS011;13092;51.996;4.458;2023-07-13T10:09:53;38.78;;;36.42;;
25111;SDS011;13092;51.996;4.458;2023-07-13T10:12:22;43.65;;;41.00;;
25111;SDS011;13092;51.996;4.458;2023-07-13T10:14:54;43.33;;;40.38;;
25111;SDS011;13092;51.996;4.458;2023-07-13T10:17:42;35.40;;;33.22;;
25111;SDS011;13092;51.996;4.458;2023-07-13T10:20:12;18.88;;;17.25;;
25111;SDS011;13092;51.996;4.458;2023-07-13T10:22:42;23.70;;;22.10;;
25111;SDS011;13092;51.996;4.458;2023-07-13T10:25:15;12.30;;;10.85;;
25111;SDS011;13092;51.996;4.458;2023-07-13T10:27:45;12.90;;;8.80;;
25111;SDS011;13092;51.996;4.458;2023-07-13T10:30:17;9.70;;;8.35;;
25111;SDS011;13092;51.996;4.458;2023-07-13T10:32:49;6.60;;;5.93;;
25111;SDS011;13092;51.996;4.458;2023-07-13T10:35:19;11.35;;;5.38;;
25111;SDS011;13092;51.996;4.458;2023-07-13T10:37:51;9.07;;;4.82;;
25111;SDS011;13092;51.996;4.458;2023-07-13T10:40:25;7.32;;;4.30;;
25111;SDS011;13092;51.996;4.458;2023-07-13T10:43:02;5.82;;;3.10;;
25111;SDS011;13092;51.996;4.458;2023-07-13T10:45:40;4.88;;;2.40;;
25111;SDS011;13092;51.996;4.458;2023-07-13T10:48:09;6.30;;;2.38;;
25111;SDS011;13092;51.996;4.458;2023-07-13T10:50:42;5.78;;;2.40;;
25111;SDS011;13092;51.996;4.458;2023-07-13T10:53:20;7.63;;;2.88;;
25111;SDS011;13092;51.996;4.458;2023-07-13T10:55:57;8.52;;;3.13;;
25111;SDS011;13092;51.996;4.458;2023-07-13T10:58:29;8.05;;;2.88;;
25111;SDS011;13092;51.996;4.458;2023-07-13T11:01:06;5.00;;;2.63;;
25111;SDS011;13092;51.996;4.458;2023-07-13T11:03:37;7.78;;;2.90;;
25111;SDS011;13092;51.996;4.458;2023-07-13T11:06:28;5.80;;;2.35;;
25111;SDS011;13092;51.996;4.458;2023-07-13T11:09:17;4.78;;;2.47;;
25111;SDS011;13092;51.996;4.458;2023-07-13T11:11:58;8.85;;;3.10;;
25111;SDS011;13092;51.996;4.458;2023-07-13T11:14:31;5.75;;;3.05;;
25111;SDS011;13092;51.996;4.458;2023-07-13T11:20:10;5.07;;;2.47;;
25111;SDS011;13092;51.996;4.458;2023-07-13T11:22:49;4.95;;;2.65;;
25111;SDS011;13092;51.996;4.458;2023-07-13T11:25:25;4.68;;;2.55;;
25111;SDS011;13092;51.996;4.458;2023-07-13T11:28:06;5.65;;;2.90;;
25111;SDS011;13092;51.996;4.458;2023-07-13T11:30:43;6.75;;;2.85;;
25111;SDS011;13092;51.996;4.458;2023-07-13T11:33:16;6.55;;;2.60;;
25111;SDS011;13092;51.996;4.458;2023-07-13T11:35:51;9.02;;;2.88;;
25111;SDS011;13092;51.996;4.458;2023-07-13T11:38:30;9.40;;;3.08;;
25111;SDS011;13092;51.996;4.458;2023-07-13T11:41:04;4.75;;;2.50;;
25111;SDS011;13092;51.996;4.458;2023-07-13T11:43:34;7.97;;;3.20;;
25111;SDS011;13092;51.996;4.458;2023-07-13T11:46:13;6.63;;;2.90;;
25111;SDS011;13092;51.996;4.458;2023-07-13T11:48:44;6.53;;;2.50;;
25111;SDS011;13092;51.996;4.458;2023-07-13T11:51:18;8.23;;;3.00;;
25111;SDS011;13092;51.996;4.458;2023-07-13T11:53:49;7.95;;;2.72;;
25111;SDS011;13092;51.996;4.458;2023-07-13T11:56:22;6.78;;;2.78;;
25111;SDS011;13092;51.996;4.458;2023-07-13T11:58:54;8.50;;;3.20;;
25111;SDS011;13092;51.996;4.458;2023-07-13T12:01:24;5.70;;;3.00;;
25111;SDS011;13092;51.996;4.458;2023-07-13T12:03:57;7.90;;;3.20;;
25111;SDS011;13092;51.996;4.458;2023-07-13T12:06:27;7.53;;;2.78;;
25111;SDS011;13092;51.996;4.458;2023-07-13T12:08:57;7.22;;;2.78;;
25111;SDS011;13092;51.996;4.458;2023-07-13T12:11:27;4.40;;;2.30;;
25111;SDS011;13092;51.996;4.458;2023-07-13T12:13:56;5.50;;;2.60;;
25111;SDS011;13092;51.996;4.458;2023-07-13T12:16:28;6.32;;;2.45;;
25111;SDS011;13092;51.996;4.458;2023-07-13T12:19:09;5.93;;;2.88;;
25111;SDS011;13092;51.996;4.458;2023-07-13T12:21:47;6.47;;;2.92;;
25111;SDS011;13092;51.996;4.458;2023-07-13T12:24:17;5.22;;;2.50;;
25111;SDS011;13092;51.996;4.458;2023-07-13T12:26:50;4.68;;;2.55;;
25111;SDS011;13092;51.996;4.458;2023-07-13T12:29:19;7.13;;;3.05;;
25111;SDS011;13092;51.996;4.458;2023-07-13T12:31:48;5.22;;;2.65;;
25111;SDS011;13092;51.996;4.458;2023-07-13T12:34:20;5.70;;;2.45;;
25111;SDS011;13092;51.996;4.458;2023-07-13T12:36:51;3.55;;;2.10;;
25111;SDS011;13092;51.996;4.458;2023-07-13T12:39:22;3.03;;;2.13;;
25111;SDS011;13092;51.996;4.458;2023-07-13T12:41:52;5.40;;;2.42;;
25111;SDS011;13092;51.996;4.458;2023-07-13T12:44:23;5.15;;;2.15;;
25111;SDS011;13092;51.996;4.458;2023-07-13T12:46:57;8.40;;;2.65;;
25111;SDS011;13092;51.996;4.458;2023-07-13T12:49:29;9.95;;;2.60;;
25111;SDS011;13092;51.996;4.458;2023-07-13T12:52:02;4.13;;;2.10;;
25111;SDS011;13092;51.996;4.458;2023-07-13T12:54:32;8.43;;;2.13;;
25111;SDS011;13092;51.996;4.458;2023-07-13T12:57:00;6.80;;;2.60;;
25111;SDS011;13092;51.996;4.458;2023-07-13T12:59:30;5.22;;;2.30;;
25111;SDS011;13092;51.996;4.458;2023-07-13T13:02:04;9.05;;;2.30;;
25111;SDS011;13092;51.996;4.458;2023-07-13T13:04:54;4.30;;;1.90;;
25111;SDS011;13092;51.996;4.458;2023-07-13T13:07:23;4.80;;;2.08;;
25111;SDS011;13092;51.996;4.458;2023-07-13T13:09:52;6.20;;;2.20;;
25111;SDS011;13092;51.996;4.458;2023-07-13T13:12:21;5.97;;;2.40;;
25111;SDS011;13092;51.996;4.458;2023-07-13T13:14:52;8.00;;;2.45;;
25111;SDS011;13092;51.996;4.458;2023-07-13T13:17:22;4.30;;;2.15;;
25111;SDS011;13092;51.996;4.458;2023-07-13T13:19:56;5.03;;;2.13;;
25111;SDS011;13092;51.996;4.458;2023-07-13T13:22:25;4.97;;;1.90;;
25111;SDS011;13092;51.996;4.458;2023-07-13T13:24:53;5.47;;;2.28;;
25111;SDS011;13092;51.996;4.458;2023-07-13T13:27:21;4.40;;;1.92;;
25111;SDS011;13092;51.996;4.458;2023-07-13T13:29:50;3.05;;;2.08;;
25111;SDS011;13092;51.996;4.458;2023-07-13T13:32:19;4.70;;;1.73;;
25111;SDS011;13092;51.996;4.458;2023-07-13T13:34:47;4.50;;;2.03;;
25111;SDS011;13092;51.996;4.458;2023-07-13T13:37:19;4.07;;;2.00;;
25111;SDS011;13092;51.996;4.458;2023-07-13T13:39:49;8.27;;;2.58;;
25111;SDS011;13092;51.996;4.458;2023-07-13T13:42:34;3.60;;;2.00;;
25111;SDS011;13092;51.996;4.458;2023-07-13T13:45:02;4.22;;;2.30;;
25111;SDS011;13092;51.996;4.458;2023-07-13T13:47:32;5.18;;;2.05;;
25111;SDS011;13092;51.996;4.458;2023-07-13T13:50:08;3.20;;;1.65;;
25111;SDS011;13092;51.996;4.458;2023-07-13T13:52:43;2.20;;;1.60;;
25111;SDS011;13092;51.996;4.458;2023-07-13T13:55:12;4.10;;;2.05;;
25111;SDS011;13092;51.996;4.458;2023-07-13T13:57:41;6.60;;;2.20;;
25111;SDS011;13092;51.996;4.458;2023-07-13T14:00:10;5.25;;;2.15;;
25111;SDS011;13092;51.996;4.458;2023-07-13T14:02:41;4.53;;;2.20;;
25111;SDS011;13092;51.996;4.458;2023-07-13T14:05:14;4.20;;;2.08;;
25111;SDS011;13092;51.996;4.458;2023-07-13T14:07:47;6.55;;;2.50;;
25111;SDS011;13092;51.996;4.458;2023-07-13T14:10:16;4.32;;;1.70;;
25111;SDS011;13092;51.996;4.458;2023-07-13T14:12:47;6.15;;;2.20;;
25111;SDS011;13092;51.996;4.458;2023-07-13T14:15:20;7.82;;;2.50;;
25111;SDS011;13092;51.996;4.458;2023-07-13T14:17:49;2.70;;;1.70;;
25111;SDS011;13092;51.996;4.458;2023-07-13T14:20:18;4.18;;;2.05;;
25111;SDS011;13092;51.996;4.458;2023-07-13T14:22:50;3.85;;;1.88;;
25111;SDS011;13092;51.996;4.458;2023-07-13T14:25:19;3.33;;;2.13;;
25111;SDS011;13092;51.996;4.458;2023-07-13T14:27:49;6.60;;;2.30;;
25111;SDS011;13092;51.996;4.458;2023-07-13T14:30:22;3.90;;;1.98;;
25111;SDS011;13092;51.996;4.458;2023-07-13T14:32:50;3.72;;;2.08;;
25111;SDS011;13092;51.996;4.458;2023-07-13T14:35:20;4.97;;;2.00;;
25111;SDS011;13092;51.996;4.458;2023-07-13T14:37:51;3.03;;;2.13;;
25111;SDS011;13092;51.996;4.458;2023-07-13T14:40:21;9.63;;;2.08;;
25111;SDS011;13092;51.996;4.458;2023-07-13T14:42:54;4.57;;;1.88;;
25111;SDS011;13092;51.996;4.458;2023-07-13T14:45:22;4.22;;;2.00;;
25111;SDS011;13092;51.996;4.458;2023-07-13T14:47:51;6.60;;;2.65;;
25111;SDS011;13092;51.996;4.458;2023-07-13T14:50:20;5.70;;;2.20;;
25111;SDS011;13092;51.996;4.458;2023-07-13T14:52:53;4.80;;;1.90;;